sensor_id;sensor_type;location;lat;lon;timestamp;temperature;humidity
37340;DHT22;23223;51.006;7.610;2022-08-18T00:01:39;17.50;99.90
37340;DHT22;23223;51.006;7.610;2022-08-18T00:04:07;17.50;99.90
37340;DHT22;23223;51.006;7.610;2022-08-18T00:06:33;17.40;99.90
37340;DHT22;23223;51.006;7.610;2022-08-18T00:09:00;17.40;99.90
37340;DHT22;23223;51.006;7.610;2022-08-18T00:11:28;17.30;99.90
37340;DHT22;23223;51.006;7.610;2022-08-18T00:13:55;17.20;99.90
37340;DHT22;23223;51.006;7.610;2022-08-18T00:16:20;17.10;99.90
37340;DHT22;23223;51.006;7.610;2022-08-18T00:18:46;17.10;99.90
37340;DHT22;23223;51.006;7.610;2022-08-18T00:21:11;17.20;99.90
37340;DHT22;23223;51.006;7.610;2022-08-18T00:23:37;17.20;99.90
37340;DHT22;23223;51.006;7.610;2022-08-18T00:26:03;17.10;99.90
37340;DHT22;23223;51.006;7.610;2022-08-18T00:28:29;17.00;99.90
37340;DHT22;23223;51.006;7.610;2022-08-18T00:30:54;16.90;99.90
37340;DHT22;23223;51.006;7.610;2022-08-18T00:33:21;16.80;99.90
37340;DHT22;23223;51.006;7.610;2022-08-18T00:35:47;16.80;99.90
37340;DHT22;23223;51.006;7.610;2022-08-18T00:38:12;16.70;99.90
37340;DHT22;23223;51.006;7.610;2022-08-18T00:40:42;16.80;99.90
37340;DHT22;23223;51.006;7.610;2022-08-18T00:43:13;17.00;99.90
37340;DHT22;23223;51.006;7.610;2022-08-18T00:45:42;17.40;99.90
37340;DHT22;23223;51.006;7.610;2022-08-18T00:48:09;17.30;99.90
37340;DHT22;23223;51.006;7.610;2022-08-18T00:50:44;17.30;99.90
37340;DHT22;23223;51.006;7.610;2022-08-18T00:53:16;17.10;99.90
37340;DHT22;23223;51.006;7.610;2022-08-18T00:55:45;17.00;99.90
37340;DHT22;23223;51.006;7.610;2022-08-18T00:58:17;16.90;99.90
37340;DHT22;23223;51.006;7.610;2022-08-18T01:00:43;16.90;99.90
37340;DHT22;23223;51.006;7.610;2022-08-18T01:03:13;17.20;99.90
37340;DHT22;23223;51.006;7.610;2022-08-18T01:05:56;17.50;99.90
37340;DHT22;23223;51.006;7.610;2022-08-18T01:08:24;17.40;99.90
37340;DHT22;23223;51.006;7.610;2022-08-18T01:10:50;17.20;99.90
37340;DHT22;23223;51.006;7.610;2022-08-18T01:13:16;17.00;99.90
37340;DHT22;23223;51.006;7.610;2022-08-18T01:15:42;16.80;99.90
37340;DHT22;23223;51.006;7.610;2022-08-18T01:18:13;16.60;99.90
37340;DHT22;23223;51.006;7.610;2022-08-18T01:21:18;16.60;99.90
37340;DHT22;23223;51.006;7.610;2022-08-18T01:24:07;16.60;99.90
37340;DHT22;23223;51.006;7.610;2022-08-18T01:26:36;17.00;99.90
37340;DHT22;23223;51.006;7.610;2022-08-18T01:29:07;17.00;99.90
37340;DHT22;23223;51.006;7.610;2022-08-18T01:31:39;16.90;99.90
37340;DHT22;23223;51.006;7.610;2022-08-18T01:34:07;16.70;99.90
37340;DHT22;23223;51.006;7.610;2022-08-18T01:36:34;16.60;99.90
37340;DHT22;23223;51.006;7.610;2022-08-18T01:39:03;16.50;99.90
37340;DHT22;23223;51.006;7.610;2022-08-18T01:41:29;16.30;99.90
37340;DHT22;23223;51.006;7.610;2022-08-18T01:43:56;16.20;99.90
37340;DHT22;23223;51.006;7.610;2022-08-18T01:46:22;16.10;99.90
37340;DHT22;23223;51.006;7.610;2022-08-18T01:48:49;16.00;99.90
37340;DHT22;23223;51.006;7.610;2022-08-18T01:51:15;15.90;99.90
37340;DHT22;23223;51.006;7.610;2022-08-18T01:53:42;15.80;99.90
37340;DHT22;23223;51.006;7.610;2022-08-18T01:56:08;15.80;99.90
37340;DHT22;23223;51.006;7.610;2022-08-18T01:58:34;15.90;99.90
37340;DHT22;23223;51.006;7.610;2022-08-18T02:01:02;15.90;99.90
37340;DHT22;23223;51.006;7.610;2022-08-18T02:03:34;15.90;99.90
37340;DHT22;23223;51.006;7.610;2022-08-18T02:06:02;15.80;99.90
37340;DHT22;23223;51.006;7.610;2022-08-18T02:08:28;15.80;99.90
37340;DHT22;23223;51.006;7.610;2022-08-18T02:10:54;15.80;99.90
37340;DHT22;23223;51.006;7.610;2022-08-18T02:13:22;15.70;99.90
37340;DHT22;23223;51.006;7.610;2022-08-18T02:15:48;15.70;99.90
37340;DHT22;23223;51.006;7.610;2022-08-18T02:18:19;15.60;99.90
37340;DHT22;23223;51.006;7.610;2022-08-18T02:20:46;15.50;99.90
37340;DHT22;23223;51.006;7.610;2022-08-18T02:23:12;15.50;99.90
37340;DHT22;23223;51.006;7.610;2022-08-18T02:25:40;15.50;99.90
37340;DHT22;23223;51.006;7.610;2022-08-18T02:28:06;15.40;99.90
37340;DHT22;23223;51.006;7.610;2022-08-18T02:30:33;15.40;99.90
37340;DHT22;23223;51.006;7.610;2022-08-18T02:33:03;15.40;99.90
37340;DHT22;23223;51.006;7.610;2022-08-18T02:35:29;15.30;99.90
37340;DHT22;23223;51.006;7.610;2022-08-18T02:38:00;15.20;99.90
37340;DHT22;23223;51.006;7.610;2022-08-18T02:40:26;15.30;99.90
37340;DHT22;23223;51.006;7.610;2022-08-18T02:42:53;15.30;99.90
37340;DHT22;23223;51.006;7.610;2022-08-18T02:45:19;15.30;99.90
37340;DHT22;23223;51.006;7.610;2022-08-18T02:47:51;15.20;99.90
37340;DHT22;23223;51.006;7.610;2022-08-18T02:50:17;15.20;99.90
37340;DHT22;23223;51.006;7.610;2022-08-18T02:52:43;15.20;99.90
37340;DHT22;23223;51.006;7.610;2022-08-18T02:55:09;15.20;99.90
37340;DHT22;23223;51.006;7.610;2022-08-18T02:57:35;15.10;99.90
37340;DHT22;23223;51.006;7.610;2022-08-18T03:00:01;15.20;99.90
37340;DHT22;23223;51.006;7.610;2022-08-18T03:02:27;15.30;99.90
37340;DHT22;23223;51.006;7.610;2022-08-18T03:04:53;15.30;99.90
37340;DHT22;23223;51.006;7.610;2022-08-18T03:07:18;15.20;99.90
37340;DHT22;23223;51.006;7.610;2022-08-18T03:09:44;15.10;99.90
37340;DHT22;23223;51.006;7.610;2022-08-18T03:12:09;15.00;99.90
37340;DHT22;23223;51.006;7.610;2022-08-18T03:14:37;15.10;99.90
37340;DHT22;23223;51.006;7.610;2022-08-18T03:17:05;15.40;99.90
37340;DHT22;23223;51.006;7.610;2022-08-18T03:19:32;15.40;99.90
37340;DHT22;23223;51.006;7.610;2022-08-18T03:21:58;15.30;99.90
37340;DHT22;23223;51.006;7.610;2022-08-18T03:24:26;15.20;99.90
37340;DHT22;23223;51.006;7.610;2022-08-18T03:26:53;15.10;99.90
37340;DHT22;23223;51.006;7.610;2022-08-18T03:29:19;14.90;99.90
37340;DHT22;23223;51.006;7.610;2022-08-18T03:31:46;14.90;99.90
37340;DHT22;23223;51.006;7.610;2022-08-18T03:34:14;15.10;99.90
37340;DHT22;23223;51.006;7.610;2022-08-18T03:36:40;15.40;99.90
37340;DHT22;23223;51.006;7.610;2022-08-18T03:39:10;15.30;99.90
37340;DHT22;23223;51.006;7.610;2022-08-18T03:41:42;15.20;99.90
37340;DHT22;23223;51.006;7.610;2022-08-18T03:44:09;15.00;99.90
37340;DHT22;23223;51.006;7.610;2022-08-18T03:46:34;14.90;99.90
37340;DHT22;23223;51.006;7.610;2022-08-18T03:49:00;14.70;99.90
37340;DHT22;23223;51.006;7.610;2022-08-18T03:51:29;14.80;99.90
37340;DHT22;23223;51.006;7.610;2022-08-18T03:53:58;15.10;99.90
37340;DHT22;23223;51.006;7.610;2022-08-18T03:56:27;15.50;99.90
37340;DHT22;23223;51.006;7.610;2022-08-18T03:58:57;15.70;99.90
37340;DHT22;23223;51.006;7.610;2022-08-18T04:01:25;16.00;99.90
37340;DHT22;23223;51.006;7.610;2022-08-18T04:03:57;16.00;99.90
37340;DHT22;23223;51.006;7.610;2022-08-18T04:06:30;15.80;99.90
37340;DHT22;23223;51.006;7.610;2022-08-18T04:08:59;15.50;99.90
37340;DHT22;23223;51.006;7.610;2022-08-18T04:11:25;15.30;99.90
37340;DHT22;23223;51.006;7.610;2022-08-18T04:13:55;15.00;99.90
37340;DHT22;23223;51.006;7.610;2022-08-18T04:16:26;14.80;99.90
37340;DHT22;23223;51.006;7.610;2022-08-18T04:18:52;14.80;99.90
37340;DHT22;23223;51.006;7.610;2022-08-18T04:21:18;14.70;99.90
37340;DHT22;23223;51.006;7.610;2022-08-18T04:23:44;14.60;99.90
37340;DHT22;23223;51.006;7.610;2022-08-18T04:26:11;14.50;99.90
37340;DHT22;23223;51.006;7.610;2022-08-18T04:28:37;14.30;99.90
37340;DHT22;23223;51.006;7.610;2022-08-18T04:31:08;14.10;99.90
37340;DHT22;23223;51.006;7.610;2022-08-18T04:33:34;14.10;99.90
37340;DHT22;23223;51.006;7.610;2022-08-18T04:36:09;14.10;99.90
37340;DHT22;23223;51.006;7.610;2022-08-18T04:38:36;14.00;99.90
37340;DHT22;23223;51.006;7.610;2022-08-18T04:41:02;14.00;99.90
37340;DHT22;23223;51.006;7.610;2022-08-18T04:43:28;13.90;99.90
37340;DHT22;23223;51.006;7.610;2022-08-18T04:45:55;13.80;99.90
37340;DHT22;23223;51.006;7.610;2022-08-18T04:48:33;13.70;99.90
37340;DHT22;23223;51.006;7.610;2022-08-18T04:51:07;13.70;99.90
37340;DHT22;23223;51.006;7.610;2022-08-18T04:53:34;13.80;99.90
37340;DHT22;23223;51.006;7.610;2022-08-18T04:58:53;13.80;99.90
37340;DHT22;23223;51.006;7.610;2022-08-18T05:01:24;13.90;99.90
37340;DHT22;23223;51.006;7.610;2022-08-18T05:03:51;14.00;99.90
37340;DHT22;23223;51.006;7.610;2022-08-18T05:06:18;14.10;99.90
37340;DHT22;23223;51.006;7.610;2022-08-18T05:08:44;14.40;99.90
37340;DHT22;23223;51.006;7.610;2022-08-18T05:11:13;14.80;99.90
37340;DHT22;23223;51.006;7.610;2022-08-18T05:13:39;15.10;99.90
37340;DHT22;23223;51.006;7.610;2022-08-18T05:16:05;15.50;99.90
37340;DHT22;23223;51.006;7.610;2022-08-18T05:18:33;16.00;99.90
37340;DHT22;23223;51.006;7.610;2022-08-18T05:21:03;16.30;99.90
37340;DHT22;23223;51.006;7.610;2022-08-18T05:23:29;16.60;99.90
37340;DHT22;23223;51.006;7.610;2022-08-18T05:25:57;16.80;99.90
37340;DHT22;23223;51.006;7.610;2022-08-18T05:28:23;16.80;99.90
37340;DHT22;23223;51.006;7.610;2022-08-18T05:30:48;16.70;99.90
37340;DHT22;23223;51.006;7.610;2022-08-18T05:33:14;16.40;99.90
37340;DHT22;23223;51.006;7.610;2022-08-18T05:35:49;16.30;99.90
37340;DHT22;23223;51.006;7.610;2022-08-18T05:41:10;16.40;99.90
37340;DHT22;23223;51.006;7.610;2022-08-18T05:43:37;16.50;99.90
37340;DHT22;23223;51.006;7.610;2022-08-18T05:46:05;16.30;99.90
37340;DHT22;23223;51.006;7.610;2022-08-18T05:48:32;16.20;99.90
37340;DHT22;23223;51.006;7.610;2022-08-18T05:51:02;16.10;99.90
37340;DHT22;23223;51.006;7.610;2022-08-18T05:53:31;16.00;99.90
37340;DHT22;23223;51.006;7.610;2022-08-18T05:56:19;15.90;99.90
37340;DHT22;23223;51.006;7.610;2022-08-18T05:59:07;16.00;99.90
37340;DHT22;23223;51.006;7.610;2022-08-18T06:01:39;16.10;99.90
37340;DHT22;23223;51.006;7.610;2022-08-18T06:04:33;16.00;99.90
37340;DHT22;23223;51.006;7.610;2022-08-18T06:07:06;16.00;99.90
37340;DHT22;23223;51.006;7.610;2022-08-18T06:09:46;16.00;99.90
37340;DHT22;23223;51.006;7.610;2022-08-18T06:14:44;16.10;99.90
37340;DHT22;23223;51.006;7.610;2022-08-18T06:17:28;16.20;99.90
37340;DHT22;23223;51.006;7.610;2022-08-18T06:20:10;16.40;99.90
37340;DHT22;23223;51.006;7.610;2022-08-18T06:22:51;16.60;99.90
37340;DHT22;23223;51.006;7.610;2022-08-18T06:28:14;16.90;99.90
37340;DHT22;23223;51.006;7.610;2022-08-18T06:31:37;16.90;99.90
37340;DHT22;23223;51.006;7.610;2022-08-18T06:33:54;17.20;99.90
37340;DHT22;23223;51.006;7.610;2022-08-18T06:37:13;17.30;99.90
37340;DHT22;23223;51.006;7.610;2022-08-18T06:39:49;17.30;99.90
37340;DHT22;23223;51.006;7.610;2022-08-18T06:42:27;17.30;99.90
37340;DHT22;23223;51.006;7.610;2022-08-18T06:45:09;17.30;99.90
37340;DHT22;23223;51.006;7.610;2022-08-18T06:47:47;17.40;99.90
37340;DHT22;23223;51.006;7.610;2022-08-18T06:50:18;17.50;99.90
37340;DHT22;23223;51.006;7.610;2022-08-18T06:53:10;17.70;99.90
37340;DHT22;23223;51.006;7.610;2022-08-18T06:55:46;18.00;99.90
37340;DHT22;23223;51.006;7.610;2022-08-18T07:00:41;18.10;99.90
37340;DHT22;23223;51.006;7.610;2022-08-18T07:03:18;18.20;99.90
37340;DHT22;23223;51.006;7.610;2022-08-18T07:08:50;18.40;99.90
37340;DHT22;23223;51.006;7.610;2022-08-18T07:13:44;18.30;99.90
37340;DHT22;23223;51.006;7.610;2022-08-18T07:16:31;18.10;99.90
37340;DHT22;23223;51.006;7.610;2022-08-18T07:19:08;18.20;99.90
37340;DHT22;23223;51.006;7.610;2022-08-18T07:21:35;18.10;99.90
37340;DHT22;23223;51.006;7.610;2022-08-18T07:24:12;18.30;99.90
37340;DHT22;23223;51.006;7.610;2022-08-18T07:26:59;18.40;99.90
37340;DHT22;23223;51.006;7.610;2022-08-18T07:29:26;18.40;99.90
37340;DHT22;23223;51.006;7.610;2022-08-18T07:31:53;18.60;99.90
37340;DHT22;23223;51.006;7.610;2022-08-18T07:34:41;18.60;99.90
37340;DHT22;23223;51.006;7.610;2022-08-18T07:42:55;19.00;99.90
37340;DHT22;23223;51.006;7.610;2022-08-18T07:45:31;19.30;99.90
37340;DHT22;23223;51.006;7.610;2022-08-18T07:48:26;19.30;99.90
37340;DHT22;23223;51.006;7.610;2022-08-18T07:59:05;19.40;99.90
37340;DHT22;23223;51.006;7.610;2022-08-18T08:02:10;19.50;99.90
37340;DHT22;23223;51.006;7.610;2022-08-18T08:05:13;19.60;99.90
37340;DHT22;23223;51.006;7.610;2022-08-18T08:08:00;19.60;99.90
37340;DHT22;23223;51.006;7.610;2022-08-18T08:10:38;19.50;99.90
37340;DHT22;23223;51.006;7.610;2022-08-18T08:21:07;18.80;99.90
37340;DHT22;23223;51.006;7.610;2022-08-18T08:29:11;18.60;99.90
37340;DHT22;23223;51.006;7.610;2022-08-18T08:31:49;18.60;99.90
37340;DHT22;23223;51.006;7.610;2022-08-18T08:37:08;18.90;99.90
37340;DHT22;23223;51.006;7.610;2022-08-18T08:42:32;19.50;99.90
37340;DHT22;23223;51.006;7.610;2022-08-18T08:45:10;19.60;99.90
37340;DHT22;23223;51.006;7.610;2022-08-18T08:47:46;19.50;99.90
37340;DHT22;23223;51.006;7.610;2022-08-18T08:50:24;19.40;99.90
37340;DHT22;23223;51.006;7.610;2022-08-18T08:53:46;19.30;99.90
37340;DHT22;23223;51.006;7.610;2022-08-18T08:55:55;19.20;99.90
37340;DHT22;23223;51.006;7.610;2022-08-18T08:58:33;19.20;99.90
37340;DHT22;23223;51.006;7.610;2022-08-18T09:01:02;19.20;99.90
37340;DHT22;23223;51.006;7.610;2022-08-18T09:03:55;19.10;99.90
37340;DHT22;23223;51.006;7.610;2022-08-18T09:06:38;19.20;99.90
37340;DHT22;23223;51.006;7.610;2022-08-18T09:09:22;19.40;99.90
37340;DHT22;23223;51.006;7.610;2022-08-18T09:17:37;19.60;99.90
37340;DHT22;23223;51.006;7.610;2022-08-18T09:20:09;19.80;99.90
37340;DHT22;23223;51.006;7.610;2022-08-18T09:23:09;19.90;99.90
37340;DHT22;23223;51.006;7.610;2022-08-18T09:28:16;19.90;99.90
37340;DHT22;23223;51.006;7.610;2022-08-18T09:36:47;19.80;99.90
37340;DHT22;23223;51.006;7.610;2022-08-18T09:39:36;19.90;99.90
37340;DHT22;23223;51.006;7.610;2022-08-18T09:42:39;19.90;99.90
37340;DHT22;23223;51.006;7.610;2022-08-18T09:45:09;20.20;99.90
37340;DHT22;23223;51.006;7.610;2022-08-18T09:57:24;20.70;99.90
37340;DHT22;23223;51.006;7.610;2022-08-18T09:59:57;20.70;99.90
37340;DHT22;23223;51.006;7.610;2022-08-18T10:07:43;21.00;99.90
37340;DHT22;23223;51.006;7.610;2022-08-18T10:10:41;21.00;99.90
37340;DHT22;23223;51.006;7.610;2022-08-18T10:18:49;21.50;99.90
37340;DHT22;23223;51.006;7.610;2022-08-18T10:21:23;21.50;99.90
37340;DHT22;23223;51.006;7.610;2022-08-18T10:31:25;21.80;99.90
37340;DHT22;23223;51.006;7.610;2022-08-18T10:39:05;21.70;99.90
37340;DHT22;23223;51.006;7.610;2022-08-18T10:41:32;21.60;99.90
37340;DHT22;23223;51.006;7.610;2022-08-18T10:44:01;21.50;99.90
37340;DHT22;23223;51.006;7.610;2022-08-18T10:46:32;21.40;99.90
37340;DHT22;23223;51.006;7.610;2022-08-18T10:57:21;21.50;99.90
37340;DHT22;23223;51.006;7.610;2022-08-18T11:00:07;21.70;99.90
37340;DHT22;23223;51.006;7.610;2022-08-18T11:02:53;21.90;99.90
37340;DHT22;23223;51.006;7.610;2022-08-18T11:05:25;22.20;99.90
37340;DHT22;23223;51.006;7.610;2022-08-18T11:07:59;22.30;99.90
37340;DHT22;23223;51.006;7.610;2022-08-18T11:10:43;22.30;99.90
37340;DHT22;23223;51.006;7.610;2022-08-18T11:13:31;22.40;99.90
37340;DHT22;23223;51.006;7.610;2022-08-18T11:16:06;22.60;99.90
37340;DHT22;23223;51.006;7.610;2022-08-18T11:18:47;22.90;99.90
37340;DHT22;23223;51.006;7.610;2022-08-18T11:26:32;23.90;99.90
37340;DHT22;23223;51.006;7.610;2022-08-18T11:31:44;24.30;99.90
37340;DHT22;23223;51.006;7.610;2022-08-18T11:34:19;24.50;99.90
37340;DHT22;23223;51.006;7.610;2022-08-18T11:37:03;24.40;99.90
37340;DHT22;23223;51.006;7.610;2022-08-18T11:39:29;24.30;99.90
37340;DHT22;23223;51.006;7.610;2022-08-18T11:41:56;24.50;99.90
37340;DHT22;23223;51.006;7.610;2022-08-18T11:44:24;24.70;99.90
37340;DHT22;23223;51.006;7.610;2022-08-18T11:46:54;24.90;99.90
37340;DHT22;23223;51.006;7.610;2022-08-18T11:49:31;25.10;99.90
37340;DHT22;23223;51.006;7.610;2022-08-18T11:52:01;25.70;99.90
37340;DHT22;23223;51.006;7.610;2022-08-18T11:54:42;25.80;99.90
37340;DHT22;23223;51.006;7.610;2022-08-18T11:57:29;25.70;99.90
37340;DHT22;23223;51.006;7.610;2022-08-18T11:59:55;25.70;99.90
37340;DHT22;23223;51.006;7.610;2022-08-18T12:02:23;25.60;99.90
37340;DHT22;23223;51.006;7.610;2022-08-18T12:04:52;25.30;99.90
37340;DHT22;23223;51.006;7.610;2022-08-18T12:07:29;25.20;99.90
37340;DHT22;23223;51.006;7.610;2022-08-18T12:10:23;25.30;99.90
37340;DHT22;23223;51.006;7.610;2022-08-18T12:12:51;25.10;99.90
37340;DHT22;23223;51.006;7.610;2022-08-18T12:17:45;25.00;99.90
37340;DHT22;23223;51.006;7.610;2022-08-18T12:20:11;25.20;99.90
37340;DHT22;23223;51.006;7.610;2022-08-18T12:22:39;25.20;99.90
37340;DHT22;23223;51.006;7.610;2022-08-18T12:25:07;25.40;99.90
37340;DHT22;23223;51.006;7.610;2022-08-18T12:27:33;25.50;99.90
37340;DHT22;23223;51.006;7.610;2022-08-18T12:30:01;25.30;99.90
37340;DHT22;23223;51.006;7.610;2022-08-18T12:32:29;25.10;99.90
37340;DHT22;23223;51.006;7.610;2022-08-18T12:34:55;24.80;99.90
37340;DHT22;23223;51.006;7.610;2022-08-18T12:37:24;24.60;99.90
37340;DHT22;23223;51.006;7.610;2022-08-18T12:39:50;24.40;99.90
37340;DHT22;23223;51.006;7.610;2022-08-18T12:42:16;24.30;99.90
37340;DHT22;23223;51.006;7.610;2022-08-18T12:44:42;24.50;99.90
37340;DHT22;23223;51.006;7.610;2022-08-18T12:47:14;25.30;99.90
37340;DHT22;23223;51.006;7.610;2022-08-18T12:49:40;26.10;99.90
37340;DHT22;23223;51.006;7.610;2022-08-18T12:52:07;26.90;99.90
37340;DHT22;23223;51.006;7.610;2022-08-18T12:54:32;27.20;99.90
37340;DHT22;23223;51.006;7.610;2022-08-18T12:57:00;27.30;99.90
37340;DHT22;23223;51.006;7.610;2022-08-18T12:59:26;27.00;99.90
37340;DHT22;23223;51.006;7.610;2022-08-18T13:01:52;27.10;99.90
37340;DHT22;23223;51.006;7.610;2022-08-18T13:04:18;27.10;99.90
37340;DHT22;23223;51.006;7.610;2022-08-18T13:06:49;27.00;99.90
37340;DHT22;23223;51.006;7.610;2022-08-18T13:09:15;27.00;99.90
37340;DHT22;23223;51.006;7.610;2022-08-18T13:11:41;26.90;99.90
37340;DHT22;23223;51.006;7.610;2022-08-18T13:14:07;26.90;99.90
37340;DHT22;23223;51.006;7.610;2022-08-18T13:16:35;26.70;99.90
37340;DHT22;23223;51.006;7.610;2022-08-18T13:19:01;26.70;99.90
37340;DHT22;23223;51.006;7.610;2022-08-18T13:21:27;26.90;99.90
37340;DHT22;23223;51.006;7.610;2022-08-18T13:23:53;27.20;99.90
37340;DHT22;23223;51.006;7.610;2022-08-18T13:26:28;27.10;99.90
37340;DHT22;23223;51.006;7.610;2022-08-18T13:28:54;27.10;99.90
37340;DHT22;23223;51.006;7.610;2022-08-18T13:31:20;26.80;99.90
37340;DHT22;23223;51.006;7.610;2022-08-18T13:33:46;26.70;99.90
37340;DHT22;23223;51.006;7.610;2022-08-18T13:36:11;26.60;99.90
37340;DHT22;23223;51.006;7.610;2022-08-18T13:38:37;26.60;99.90
37340;DHT22;23223;51.006;7.610;2022-08-18T13:41:04;26.60;99.90
37340;DHT22;23223;51.006;7.610;2022-08-18T13:43:32;26.50;99.90
37340;DHT22;23223;51.006;7.610;2022-08-18T13:46:00;26.70;99.90
37340;DHT22;23223;51.006;7.610;2022-08-18T13:48:26;26.60;99.90
37340;DHT22;23223;51.006;7.610;2022-08-18T13:50:54;26.60;99.90
37340;DHT22;23223;51.006;7.610;2022-08-18T13:53:20;26.90;99.90
37340;DHT22;23223;51.006;7.610;2022-08-18T13:55:46;27.40;99.90
37340;DHT22;23223;51.006;7.610;2022-08-18T13:58:12;27.60;99.90
37340;DHT22;23223;51.006;7.610;2022-08-18T14:00:39;27.70;99.90
37340;DHT22;23223;51.006;7.610;2022-08-18T14:03:05;27.90;99.90
37340;DHT22;23223;51.006;7.610;2022-08-18T14:05:31;27.70;99.90
37340;DHT22;23223;51.006;7.610;2022-08-18T14:07:59;27.70;99.90
37340;DHT22;23223;51.006;7.610;2022-08-18T14:10:25;27.80;99.90
37340;DHT22;23223;51.006;7.610;2022-08-18T14:12:53;28.00;99.90
37340;DHT22;23223;51.006;7.610;2022-08-18T14:15:19;28.10;99.90
37340;DHT22;23223;51.006;7.610;2022-08-18T14:17:45;28.20;99.90
37340;DHT22;23223;51.006;7.610;2022-08-18T14:20:11;27.80;99.90
37340;DHT22;23223;51.006;7.610;2022-08-18T14:22:58;27.90;99.90
37340;DHT22;23223;51.006;7.610;2022-08-18T14:25:43;27.80;99.90
37340;DHT22;23223;51.006;7.610;2022-08-18T14:28:28;27.80;99.90
37340;DHT22;23223;51.006;7.610;2022-08-18T14:30:56;27.50;99.90
37340;DHT22;23223;51.006;7.610;2022-08-18T14:33:23;27.60;99.90
37340;DHT22;23223;51.006;7.610;2022-08-18T14:35:49;27.60;99.90
37340;DHT22;23223;51.006;7.610;2022-08-18T14:38:15;27.50;99.90
37340;DHT22;23223;51.006;7.610;2022-08-18T14:40:42;27.50;99.90
37340;DHT22;23223;51.006;7.610;2022-08-18T14:43:09;27.50;99.90
37340;DHT22;23223;51.006;7.610;2022-08-18T14:45:34;27.50;99.90
37340;DHT22;23223;51.006;7.610;2022-08-18T14:48:02;27.50;99.90
37340;DHT22;23223;51.006;7.610;2022-08-18T14:50:28;27.30;99.90
37340;DHT22;23223;51.006;7.610;2022-08-18T14:52:53;27.50;99.90
37340;DHT22;23223;51.006;7.610;2022-08-18T14:55:19;27.40;99.90
37340;DHT22;23223;51.006;7.610;2022-08-18T14:57:44;27.50;99.90
37340;DHT22;23223;51.006;7.610;2022-08-18T15:00:14;27.40;99.90
37340;DHT22;23223;51.006;7.610;2022-08-18T15:02:41;27.40;99.90
37340;DHT22;23223;51.006;7.610;2022-08-18T15:05:07;27.50;99.90
37340;DHT22;23223;51.006;7.610;2022-08-18T15:07:34;27.50;99.90
37340;DHT22;23223;51.006;7.610;2022-08-18T15:10:07;27.20;99.90
37340;DHT22;23223;51.006;7.610;2022-08-18T15:12:34;27.10;99.90
37340;DHT22;23223;51.006;7.610;2022-08-18T15:15:04;27.10;99.90
37340;DHT22;23223;51.006;7.610;2022-08-18T15:17:30;26.90;99.90
37340;DHT22;23223;51.006;7.610;2022-08-18T15:19:56;26.80;99.90
37340;DHT22;23223;51.006;7.610;2022-08-18T15:22:23;26.70;99.90
37340;DHT22;23223;51.006;7.610;2022-08-18T15:25:08;26.70;99.90
37340;DHT22;23223;51.006;7.610;2022-08-18T15:27:52;26.50;99.90
37340;DHT22;23223;51.006;7.610;2022-08-18T15:30:20;26.60;99.90
37340;DHT22;23223;51.006;7.610;2022-08-18T15:32:47;26.50;99.90
37340;DHT22;23223;51.006;7.610;2022-08-18T15:35:14;26.40;99.90
37340;DHT22;23223;51.006;7.610;2022-08-18T15:37:42;26.30;99.90
37340;DHT22;23223;51.006;7.610;2022-08-18T15:40:15;26.10;99.90
37340;DHT22;23223;51.006;7.610;2022-08-18T15:42:45;25.90;99.90
37340;DHT22;23223;51.006;7.610;2022-08-18T15:45:16;25.90;99.90
37340;DHT22;23223;51.006;7.610;2022-08-18T15:47:43;26.00;99.90
37340;DHT22;23223;51.006;7.610;2022-08-18T15:50:11;26.00;99.90
37340;DHT22;23223;51.006;7.610;2022-08-18T15:52:48;26.10;99.90
37340;DHT22;23223;51.006;7.610;2022-08-18T15:55:16;26.00;99.90
37340;DHT22;23223;51.006;7.610;2022-08-18T15:57:43;26.00;99.90
37340;DHT22;23223;51.006;7.610;2022-08-18T16:00:09;26.00;99.90
37340;DHT22;23223;51.006;7.610;2022-08-18T16:02:36;26.00;99.90
37340;DHT22;23223;51.006;7.610;2022-08-18T16:05:05;26.10;99.90
37340;DHT22;23223;51.006;7.610;2022-08-18T16:07:31;26.20;99.90
37340;DHT22;23223;51.006;7.610;2022-08-18T16:09:58;26.30;99.90
37340;DHT22;23223;51.006;7.610;2022-08-18T16:12:24;26.30;99.90
37340;DHT22;23223;51.006;7.610;2022-08-18T16:14:50;26.20;99.90
37340;DHT22;23223;51.006;7.610;2022-08-18T16:17:17;26.10;99.90
37340;DHT22;23223;51.006;7.610;2022-08-18T16:19:45;26.00;99.90
37340;DHT22;23223;51.006;7.610;2022-08-18T16:22:12;25.90;99.90
37340;DHT22;23223;51.006;7.610;2022-08-18T16:24:38;25.90;99.90
37340;DHT22;23223;51.006;7.610;2022-08-18T16:27:04;25.90;99.90
37340;DHT22;23223;51.006;7.610;2022-08-18T16:29:32;25.70;99.90
37340;DHT22;23223;51.006;7.610;2022-08-18T16:31:58;25.70;99.90
37340;DHT22;23223;51.006;7.610;2022-08-18T16:34:24;25.60;99.90
37340;DHT22;23223;51.006;7.610;2022-08-18T16:36:52;25.50;99.90
37340;DHT22;23223;51.006;7.610;2022-08-18T16:39:19;25.50;99.90
37340;DHT22;23223;51.006;7.610;2022-08-18T16:41:45;25.40;99.90
37340;DHT22;23223;51.006;7.610;2022-08-18T16:44:11;25.40;99.90
37340;DHT22;23223;51.006;7.610;2022-08-18T16:46:39;25.50;99.90
37340;DHT22;23223;51.006;7.610;2022-08-18T16:49:05;25.30;99.90
37340;DHT22;23223;51.006;7.610;2022-08-18T16:51:32;25.30;99.90
37340;DHT22;23223;51.006;7.610;2022-08-18T16:53:59;25.30;99.90
37340;DHT22;23223;51.006;7.610;2022-08-18T16:56:29;25.30;99.90
37340;DHT22;23223;51.006;7.610;2022-08-18T16:58:55;25.40;99.90
37340;DHT22;23223;51.006;7.610;2022-08-18T17:01:39;25.60;99.90
37340;DHT22;23223;51.006;7.610;2022-08-18T17:04:27;25.80;99.90
37340;DHT22;23223;51.006;7.610;2022-08-18T17:06:55;26.00;99.90
37340;DHT22;23223;51.006;7.610;2022-08-18T17:09:22;25.90;99.90
37340;DHT22;23223;51.006;7.610;2022-08-18T17:11:49;25.90;99.90
37340;DHT22;23223;51.006;7.610;2022-08-18T17:14:16;25.80;99.90
37340;DHT22;23223;51.006;7.610;2022-08-18T17:16:42;25.80;99.90
37340;DHT22;23223;51.006;7.610;2022-08-18T17:19:10;25.80;99.90
37340;DHT22;23223;51.006;7.610;2022-08-18T17:21:36;25.80;99.90
37340;DHT22;23223;51.006;7.610;2022-08-18T17:24:06;25.90;99.90
37340;DHT22;23223;51.006;7.610;2022-08-18T17:29:14;25.70;99.90
37340;DHT22;23223;51.006;7.610;2022-08-18T17:31:56;25.60;99.90
37340;DHT22;23223;51.006;7.610;2022-08-18T17:34:29;25.60;99.90
37340;DHT22;23223;51.006;7.610;2022-08-18T17:36:57;25.70;99.90
37340;DHT22;23223;51.006;7.610;2022-08-18T17:39:56;25.50;99.90
37340;DHT22;23223;51.006;7.610;2022-08-18T17:42:30;25.30;99.90
37340;DHT22;23223;51.006;7.610;2022-08-18T17:45:05;25.20;99.90
37340;DHT22;23223;51.006;7.610;2022-08-18T17:47:35;25.10;99.90
37340;DHT22;23223;51.006;7.610;2022-08-18T17:50:06;24.90;99.90
37340;DHT22;23223;51.006;7.610;2022-08-18T17:52:54;24.80;99.90
37340;DHT22;23223;51.006;7.610;2022-08-18T17:55:30;24.70;99.90